createdAt,value
2018-01-24T00:00:21.435Z,0
2018-01-24T00:01:21.408Z,0
2018-01-24T00:02:21.687Z,0
2018-01-24T00:03:21.379Z,0
2018-01-24T00:04:21.371Z,0
2018-01-24T00:05:21.674Z,0
2018-01-24T00:06:21.606Z,0
2018-01-24T00:07:21.688Z,0
2018-01-24T00:08:21.028Z,0
2018-01-24T00:09:21.288Z,0
2018-01-24T00:10:21.287Z,0
2018-01-24T00:11:21.809Z,0
2018-01-24T00:12:21.778Z,0
2018-01-24T00:13:21.218Z,0
2018-01-24T00:14:20.929Z,0
2018-01-24T00:15:21.206Z,0
2018-01-24T00:16:20.930Z,0
2018-01-24T00:17:20.885Z,0
2018-01-24T00:18:20.896Z,0
2018-01-24T00:19:20.868Z,0
2018-01-24T00:20:21.378Z,0
2018-01-24T00:21:21.119Z,0
2018-01-24T00:22:20.824Z,0
2018-01-24T00:23:21.069Z,0
2018-01-24T00:24:21.594Z,0
2018-01-24T00:25:21.031Z,0
2018-01-24T00:26:21.012Z,0
2018-01-24T00:27:21.002Z,0
2018-01-24T00:28:20.706Z,0
2018-01-24T00:29:21.305Z,0
2018-01-24T00:30:21.527Z,0
2018-01-24T00:31:21.747Z,0
2018-01-24T00:32:21.480Z,0
2018-01-24T00:33:21.198Z,0
2018-01-24T00:34:21.429Z,0
2018-01-24T00:35:20.868Z,0
2018-01-24T00:36:20.584Z,0
2018-01-24T00:37:21.114Z,0
2018-01-24T00:38:20.840Z,0
2018-01-24T00:39:21.122Z,0
2018-01-24T00:40:20.514Z,0
2018-01-24T00:41:21.075Z,0
2018-01-24T00:42:20.758Z,0
2018-01-24T00:43:20.744Z,0
2018-01-24T00:44:20.734Z,0
2018-01-24T00:45:20.718Z,0
2018-01-24T00:46:21.260Z,0
2018-01-24T00:47:21.715Z,0
2018-01-24T00:48:20.928Z,0
2018-01-24T00:49:20.642Z,0
2018-01-24T00:50:20.636Z,0
2018-01-24T00:51:20.613Z,0
2018-01-24T00:52:20.324Z,0
2018-01-24T00:53:20.601Z,0
2018-01-24T00:54:20.582Z,0
2018-01-24T00:55:20.815Z,0
2018-01-24T00:56:21.126Z,0
2018-01-24T00:57:20.514Z,0
2018-01-24T00:58:20.431Z,0
2018-01-24T00:59:20.484Z,0
2018-01-24T01:00:20.510Z,0
2018-01-24T01:01:20.187Z,0
2018-01-24T01:02:20.996Z,0
2018-01-24T01:03:20.149Z,0
2018-01-24T01:04:20.149Z,0
2018-01-24T01:05:20.675Z,0
2018-01-24T01:06:20.371Z,0
2018-01-24T01:07:20.630Z,0
2018-01-24T01:08:20.339Z,0
2018-01-24T01:09:20.889Z,0
2018-01-24T01:10:20.622Z,0
2018-01-24T01:11:20.564Z,0
2018-01-24T01:12:20.045Z,0
2018-01-24T01:13:19.989Z,0
2018-01-24T01:14:19.970Z,0
2018-01-24T01:15:20.239Z,0
2018-01-24T01:16:20.212Z,0
2018-01-24T01:17:20.201Z,0
2018-01-24T01:18:20.721Z,0
2018-01-24T01:19:20.708Z,0
2018-01-24T01:20:20.167Z,0
2018-01-24T01:21:20.440Z,0
2018-01-24T01:22:20.156Z,0
2018-01-24T01:23:20.159Z,0
2018-01-24T01:24:20.365Z,0
2018-01-24T01:25:20.074Z,0
2018-01-24T01:26:20.073Z,0
2018-01-24T01:27:20.074Z,0
2018-01-24T01:28:20.025Z,0
2018-01-24T01:29:20.300Z,0
2018-01-24T01:30:20.008Z,0
2018-01-24T01:31:19.702Z,0
2018-01-24T01:32:19.967Z,0
2018-01-24T01:33:19.670Z,0
2018-01-24T01:34:19.953Z,0
2018-01-24T01:35:20.471Z,0
2018-01-24T01:36:20.169Z,0
2018-01-24T01:37:20.183Z,0
2018-01-24T01:38:20.136Z,0
2018-01-24T01:39:19.596Z,0
2018-01-24T01:40:19.596Z,0
2018-01-24T01:41:19.814Z,0
2018-01-24T01:42:19.537Z,0
2018-01-24T01:43:19.800Z,0
2018-01-24T01:44:19.497Z,0
2018-01-24T01:45:19.754Z,0
2018-01-24T01:46:20.021Z,0
2018-01-24T01:47:19.729Z,0
2018-01-24T01:48:19.432Z,0
2018-01-24T01:49:19.438Z,0
2018-01-24T01:50:20.238Z,0
2018-01-24T01:51:19.924Z,0
2018-01-24T01:52:19.666Z,0
2018-01-24T01:53:19.922Z,0
2018-01-24T01:54:20.159Z,0
2018-01-24T01:55:19.339Z,0
2018-01-24T01:56:19.307Z,0
2018-01-24T01:57:19.591Z,0
2018-01-24T01:58:20.090Z,0
2018-01-24T01:59:19.539Z,0
2018-01-24T02:00:19.510Z,0
2018-01-24T02:01:19.781Z,0
2018-01-24T02:02:19.753Z,0
2018-01-24T02:03:19.750Z,0
2018-01-24T02:04:19.446Z,0
2018-01-24T02:05:19.450Z,0
2018-01-24T02:06:19.147Z,0
2018-01-24T02:07:19.406Z,0
2018-01-24T02:08:19.679Z,0
2018-01-24T02:09:19.371Z,0
2018-01-24T02:10:19.371Z,0
2018-01-24T02:11:19.065Z,0
2018-01-24T02:12:19.340Z,0
2018-01-24T02:13:19.033Z,0
2018-01-24T02:14:19.289Z,0
2018-01-24T02:15:19.028Z,0
2018-01-24T02:16:18.987Z,0
2018-01-24T02:17:18.969Z,0
2018-01-24T02:18:19.575Z,0
2018-01-24T02:19:18.939Z,0
2018-01-24T02:20:19.196Z,0
2018-01-24T02:21:19.176Z,0
2018-01-24T02:22:19.163Z,0
2018-01-24T02:23:18.877Z,0
2018-01-24T02:24:19.141Z,0
2018-01-24T02:25:19.400Z,0
2018-01-24T02:26:19.122Z,0
2018-01-24T02:27:18.814Z,0
2018-01-24T02:28:19.069Z,0
2018-01-24T02:29:19.239Z,0
2018-01-24T02:30:19.038Z,0
2018-01-24T02:31:19.030Z,0
2018-01-24T02:32:19.291Z,0
2018-01-24T02:33:19.260Z,0
2018-01-24T02:34:18.985Z,0
2018-01-24T02:35:19.230Z,0
2018-01-24T02:36:19.217Z,0
2018-01-24T02:37:19.474Z,0
2018-01-24T02:38:19.185Z,0
2018-01-24T02:39:18.628Z,0
2018-01-24T02:40:19.156Z,0
2018-01-24T02:41:19.406Z,0
2018-01-24T02:42:18.846Z,0
2018-01-24T02:43:18.839Z,0
2018-01-24T02:44:18.856Z,0
2018-01-24T02:45:18.818Z,0
2018-01-24T02:46:18.527Z,0
2018-01-24T02:47:19.079Z,0
2018-01-24T02:48:18.757Z,0
2018-01-24T02:49:18.733Z,0
2018-01-24T02:50:18.728Z,0
2018-01-24T02:51:18.996Z,0
2018-01-24T02:52:18.414Z,0
2018-01-24T02:53:19.228Z,0
2018-01-24T02:54:18.400Z,0
2018-01-24T02:55:18.370Z,0
2018-01-24T02:56:18.637Z,0
2018-01-24T02:57:18.616Z,0
2018-01-24T02:58:18.325Z,0
2018-01-24T02:59:18.861Z,0
2018-01-24T03:00:18.559Z,0
2018-01-24T03:01:18.542Z,0
2018-01-24T03:02:18.273Z,0
2018-01-24T03:03:18.513Z,0
2018-01-24T03:04:18.267Z,0
2018-01-24T03:05:18.495Z,0
2018-01-24T03:06:18.195Z,0
2018-01-24T03:07:18.490Z,0
2018-01-24T03:08:18.188Z,0
2018-01-24T03:09:18.416Z,0
2018-01-24T03:10:18.134Z,0
2018-01-24T03:11:18.113Z,0
2018-01-24T03:12:18.408Z,0
2018-01-24T03:13:18.367Z,0
2018-01-24T03:14:18.617Z,0
2018-01-24T03:15:18.337Z,0
2018-01-24T03:16:18.321Z,0
2018-01-24T03:17:18.296Z,0
2018-01-24T03:18:18.026Z,0
2018-01-24T03:19:18.815Z,0
2018-01-24T03:20:17.972Z,0
2018-01-24T03:21:18.236Z,0
2018-01-24T03:22:17.955Z,0
2018-01-24T03:23:17.945Z,0
2018-01-24T03:24:18.225Z,0
2018-01-24T03:25:18.177Z,0
2018-01-24T03:26:18.149Z,0
2018-01-24T03:27:18.144Z,0
2018-01-24T03:28:17.847Z,0
2018-01-24T03:29:17.829Z,0
2018-01-24T03:30:17.816Z,0
2018-01-24T03:31:18.076Z,0
2018-01-24T03:32:18.065Z,0
2018-01-24T03:33:17.768Z,0
2018-01-24T03:34:18.298Z,0
2018-01-24T03:35:17.735Z,0
2018-01-24T03:36:17.736Z,0
2018-01-24T03:37:18.260Z,0
2018-01-24T03:38:18.787Z,0
2018-01-24T03:39:17.941Z,0
2018-01-24T03:40:18.469Z,0
2018-01-24T03:41:17.636Z,0
2018-01-24T03:42:17.895Z,0
2018-01-24T03:43:17.878Z,0
2018-01-24T03:44:18.410Z,0
2018-01-24T03:45:17.882Z,0
2018-01-24T03:46:17.572Z,0
2018-01-24T03:47:17.818Z,0
2018-01-24T03:48:17.535Z,0
2018-01-24T03:49:17.806Z,0
2018-01-24T03:50:18.046Z,0
2018-01-24T03:51:17.772Z,0
2018-01-24T03:52:17.754Z,0
2018-01-24T03:53:17.725Z,0
2018-01-24T03:54:17.706Z,0
2018-01-24T03:55:17.965Z,0
2018-01-24T03:56:17.674Z,0
2018-01-24T03:57:17.386Z,0
2018-01-24T03:58:17.912Z,0
2018-01-24T03:59:17.355Z,0
2018-01-24T04:00:17.365Z,0
2018-01-24T04:01:17.599Z,0
2018-01-24T04:02:17.600Z,0
2018-01-24T04:03:18.116Z,0
2018-01-24T04:04:17.821Z,0
2018-01-24T04:05:17.806Z,0
2018-01-24T04:06:17.268Z,0
2018-01-24T04:07:18.068Z,0
2018-01-24T04:08:17.488Z,0
2018-01-24T04:09:17.218Z,0
2018-01-24T04:10:17.473Z,0
2018-01-24T04:11:18.001Z,0
2018-01-24T04:12:17.449Z,0
2018-01-24T04:13:17.407Z,0
2018-01-24T04:14:17.391Z,0
2018-01-24T04:15:17.403Z,0
2018-01-24T04:16:18.177Z,0
2018-01-24T04:17:17.636Z,0
2018-01-24T04:18:17.887Z,0
2018-01-24T04:19:17.338Z,0
2018-01-24T04:20:17.298Z,0
2018-01-24T04:21:17.292Z,0
2018-01-24T04:22:17.265Z,0
2018-01-24T04:23:17.534Z,0
2018-01-24T04:24:17.776Z,0
2018-01-24T04:25:17.810Z,0
2018-01-24T04:26:17.204Z,0
2018-01-24T04:27:16.918Z,0
2018-01-24T04:28:17.176Z,0
2018-01-24T04:29:17.423Z,0
2018-01-24T04:30:17.146Z,0
2018-01-24T04:31:17.411Z,0
2018-01-24T04:32:17.411Z,0
2018-01-24T04:33:17.093Z,0
2018-01-24T04:34:17.358Z,0
2018-01-24T04:35:17.112Z,0
2018-01-24T04:36:17.064Z,0
2018-01-24T04:37:17.033Z,0
2018-01-24T04:38:17.302Z,0
2018-01-24T04:39:17.296Z,0
2018-01-24T04:40:17.252Z,0
2018-01-24T04:41:16.722Z,0
2018-01-24T04:42:16.965Z,0
2018-01-24T04:43:16.947Z,0
2018-01-24T04:44:16.935Z,0
2018-01-24T04:45:17.463Z,0
2018-01-24T04:46:17.187Z,0
2018-01-24T04:47:16.639Z,0
2018-01-24T04:48:16.589Z,0
2018-01-24T04:49:17.122Z,0
2018-01-24T04:50:17.372Z,0
2018-01-24T04:51:16.813Z,0
2018-01-24T04:52:16.811Z,0
2018-01-24T04:53:17.055Z,0
2018-01-24T04:54:17.307Z,0
2018-01-24T04:55:16.773Z,0
2018-01-24T04:56:16.738Z,0
2018-01-24T04:57:16.721Z,0
2018-01-24T04:58:16.430Z,0
2018-01-24T04:59:16.963Z,0
2018-01-24T05:00:16.679Z,0
2018-01-24T05:01:17.226Z,0
2018-01-24T05:02:16.935Z,0
2018-01-24T05:03:17.198Z,0
2018-01-24T05:04:16.894Z,0
2018-01-24T05:05:16.599Z,0
2018-01-24T05:06:16.601Z,0
2018-01-24T05:07:16.840Z,0
2018-01-24T05:08:16.545Z,0
2018-01-24T05:09:16.530Z,0
2018-01-24T05:10:16.788Z,0
2018-01-24T05:11:16.262Z,0
2018-01-24T05:12:16.488Z,0
2018-01-24T05:13:16.472Z,0
2018-01-24T05:14:16.736Z,0
2018-01-24T05:15:16.457Z,0
2018-01-24T05:16:16.695Z,0
2018-01-24T05:17:16.414Z,0
2018-01-24T05:18:16.408Z,0
2018-01-24T05:19:16.650Z,0
2018-01-24T05:20:16.091Z,0
2018-01-24T05:21:16.408Z,0
2018-01-24T05:22:16.339Z,0
2018-01-24T05:23:16.333Z,0
2018-01-24T05:24:16.845Z,0
2018-01-24T05:25:16.308Z,0
2018-01-24T05:26:16.001Z,0
2018-01-24T05:27:15.983Z,0
2018-01-24T05:28:16.800Z,0
2018-01-24T05:29:16.222Z,0
2018-01-24T05:30:16.242Z,0
2018-01-24T05:31:16.192Z,0
2018-01-24T05:32:16.451Z,0
2018-01-24T05:33:15.911Z,0
2018-01-24T05:34:16.147Z,0
2018-01-24T05:35:15.860Z,0
2018-01-24T05:36:16.656Z,0
2018-01-24T05:37:16.101Z,0
2018-01-24T05:38:16.088Z,0
2018-01-24T05:39:15.829Z,0
2018-01-24T05:40:16.097Z,0
2018-01-24T05:41:15.778Z,0
2018-01-24T05:42:16.027Z,0
2018-01-24T05:43:15.738Z,0
2018-01-24T05:44:16.542Z,0
2018-01-24T05:45:16.013Z,0
2018-01-24T05:46:16.234Z,0
2018-01-24T05:47:15.951Z,0
2018-01-24T05:48:16.273Z,0
2018-01-24T05:49:15.926Z,0
2018-01-24T05:50:16.175Z,0
2018-01-24T05:51:15.636Z,0
2018-01-24T05:52:15.882Z,0
2018-01-24T05:53:16.127Z,0
2018-01-24T05:54:15.856Z,0
2018-01-24T05:55:15.824Z,0
2018-01-24T05:56:16.077Z,0
2018-01-24T05:57:16.099Z,0
2018-01-24T05:58:15.509Z,0
2018-01-24T05:59:16.057Z,0
2018-01-24T06:00:15.749Z,0
2018-01-24T06:01:15.745Z,0
2018-01-24T06:02:15.717Z,0
2018-01-24T06:03:15.433Z,0
2018-01-24T06:04:15.964Z,0
2018-01-24T06:05:16.036Z,0
2018-01-24T06:06:15.970Z,0
2018-01-24T06:07:15.671Z,0
2018-01-24T06:08:15.910Z,0
2018-01-24T06:09:15.618Z,0
2018-01-24T06:10:15.597Z,0
2018-01-24T06:11:15.873Z,0
2018-01-24T06:12:15.584Z,0
2018-01-24T06:13:15.552Z,0
2018-01-24T06:14:15.266Z,0
2018-01-24T06:15:15.526Z,0
2018-01-24T06:16:15.531Z,0
2018-01-24T06:17:15.502Z,0
2018-01-24T06:18:15.770Z,0
2018-01-24T06:19:15.815Z,0
2018-01-24T06:20:15.178Z,0
2018-01-24T06:21:15.722Z,0
2018-01-24T06:22:15.442Z,0
2018-01-24T06:23:15.130Z,0
2018-01-24T06:24:15.393Z,0
2018-01-24T06:25:15.382Z,0
2018-01-24T06:26:15.386Z,0
2018-01-24T06:27:15.082Z,0
2018-01-24T06:28:15.605Z,0
2018-01-24T06:29:15.582Z,0
2018-01-24T06:30:15.572Z,0
2018-01-24T06:31:15.314Z,0
2018-01-24T06:32:15.277Z,0
2018-01-24T06:33:15.828Z,0
2018-01-24T06:34:15.545Z,0
2018-01-24T06:35:15.221Z,0
2018-01-24T06:36:15.769Z,0
2018-01-24T06:37:15.497Z,0
2018-01-24T06:38:15.176Z,0
2018-01-24T06:39:15.857Z,0
2018-01-24T06:40:15.164Z,0
2018-01-24T06:41:15.409Z,0
2018-01-24T06:42:15.393Z,0
2018-01-24T06:43:14.835Z,0
2018-01-24T06:44:15.153Z,0
2018-01-24T06:45:15.078Z,0
2018-01-24T06:46:15.624Z,0
2018-01-24T06:47:15.606Z,0
2018-01-24T06:48:15.307Z,0
2018-01-24T06:49:15.289Z,0
2018-01-24T06:50:14.963Z,0
2018-01-24T06:51:15.082Z,0
2018-01-24T06:52:15.253Z,0
2018-01-24T06:53:15.047Z,0
2018-01-24T06:54:15.484Z,0
2018-01-24T06:55:15.195Z,0
2018-01-24T06:56:15.188Z,0
2018-01-24T06:57:15.227Z,5
2018-01-24T06:58:15.533Z,0
2018-01-24T06:59:15.206Z,0
2018-01-24T07:00:15.472Z,0
2018-01-24T07:01:15.136Z,5
2018-01-24T07:02:14.826Z,5
2018-01-24T07:03:14.810Z,5
2018-01-24T07:04:14.545Z,5
2018-01-24T07:05:14.829Z,5
2018-01-24T07:06:14.766Z,5
2018-01-24T07:07:15.025Z,10
2018-01-24T07:08:14.736Z,5
2018-01-24T07:09:14.511Z,10
2018-01-24T07:10:14.707Z,10
2018-01-24T07:11:15.245Z,10
2018-01-24T07:12:14.709Z,10
2018-01-24T07:13:14.391Z,10
2018-01-24T07:14:14.663Z,15
2018-01-24T07:15:14.631Z,10
2018-01-24T07:16:14.625Z,10
2018-01-24T07:17:14.621Z,5
2018-01-24T07:18:14.865Z,5
2018-01-24T07:19:15.114Z,10
2018-01-24T07:20:14.574Z,10
2018-01-24T07:21:14.594Z,10
2018-01-24T07:22:14.273Z,10
2018-01-24T07:23:15.057Z,10
2018-01-24T07:24:14.519Z,15
2018-01-24T07:25:14.760Z,20
2018-01-24T07:26:15.026Z,20
2018-01-24T07:27:14.722Z,20
2018-01-24T07:28:14.452Z,15
2018-01-24T07:29:14.797Z,20
2018-01-24T07:30:14.616Z,25
2018-01-24T07:31:14.141Z,25
2018-01-24T07:32:14.669Z,30
2018-01-24T07:33:14.369Z,25
2018-01-24T07:34:14.636Z,20
2018-01-24T07:35:14.066Z,20
2018-01-24T07:36:14.345Z,20
2018-01-24T07:37:14.305Z,25
2018-01-24T07:38:14.325Z,25
2018-01-24T07:39:14.008Z,25
2018-01-24T07:40:14.536Z,25
2018-01-24T07:41:14.014Z,30
2018-01-24T07:42:13.961Z,30
2018-01-24T07:43:14.495Z,30
2018-01-24T07:44:14.756Z,35
2018-01-24T07:45:14.219Z,40
2018-01-24T07:46:14.196Z,50
2018-01-24T07:47:14.432Z,55
2018-01-24T07:48:14.157Z,60
2018-01-24T07:49:13.940Z,55
2018-01-24T07:50:14.680Z,55
2018-01-24T07:51:14.108Z,55
2018-01-24T07:52:14.102Z,45
2018-01-24T07:53:13.824Z,45
2018-01-24T07:54:14.074Z,35
2018-01-24T07:55:13.776Z,30
2018-01-24T07:56:14.305Z,35
2018-01-24T07:57:14.551Z,40
2018-01-24T07:58:14.297Z,45
2018-01-24T07:59:14.261Z,40
2018-01-24T08:00:14.533Z,35
2018-01-24T08:01:14.229Z,35
2018-01-24T08:02:13.673Z,35
2018-01-24T08:03:14.250Z,35
2018-01-24T08:04:14.186Z,40
2018-01-24T08:05:14.450Z,45
2018-01-24T08:06:14.158Z,55
2018-01-24T08:07:13.872Z,70
2018-01-24T08:08:14.138Z,60
2018-01-24T08:09:13.596Z,55
2018-01-24T08:10:14.190Z,55
2018-01-24T08:11:13.814Z,50
2018-01-24T08:12:13.813Z,50
2018-01-24T08:13:13.515Z,50
2018-01-24T08:14:13.780Z,55
2018-01-24T08:15:13.754Z,70
2018-01-24T08:16:13.746Z,75
2018-01-24T08:17:13.732Z,65
2018-01-24T08:18:13.730Z,50
2018-01-24T08:19:13.725Z,45
2018-01-24T08:20:13.414Z,50
2018-01-24T08:21:13.670Z,55
2018-01-24T08:22:13.662Z,60
2018-01-24T08:23:13.638Z,65
2018-01-24T08:24:13.629Z,75
2018-01-24T08:25:13.612Z,85
2018-01-24T08:26:13.914Z,85
2018-01-24T08:27:13.880Z,75
2018-01-24T08:28:14.141Z,75
2018-01-24T08:29:13.564Z,75
2018-01-24T08:30:13.274Z,80
2018-01-24T08:31:13.282Z,75
2018-01-24T08:32:13.271Z,85
2018-01-24T08:33:13.498Z,85
2018-01-24T08:34:13.519Z,95
2018-01-24T08:35:13.473Z,95
2018-01-24T08:36:13.460Z,80
2018-01-24T08:37:13.459Z,75
2018-01-24T08:38:13.743Z,85
2018-01-24T08:39:13.140Z,95
2018-01-24T08:40:13.398Z,90
2018-01-24T08:41:13.657Z,90
2018-01-24T08:42:13.651Z,95
2018-01-24T08:43:13.105Z,105
2018-01-24T08:44:13.348Z,100
2018-01-24T08:45:13.618Z,105
2018-01-24T08:46:13.069Z,120
2018-01-24T08:47:13.847Z,130
2018-01-24T08:48:13.555Z,120
2018-01-24T08:49:13.000Z,115
2018-01-24T08:50:13.915Z,115
2018-01-24T08:51:12.969Z,125
2018-01-24T08:52:13.231Z,115
2018-01-24T08:53:13.214Z,110
2018-01-24T08:54:13.202Z,115
2018-01-24T08:55:12.948Z,130
2018-01-24T08:56:12.910Z,135
2018-01-24T08:57:13.453Z,145
2018-01-24T08:58:13.419Z,140
2018-01-24T08:59:13.141Z,150
2018-01-24T09:00:13.422Z,135
2018-01-24T09:01:12.834Z,135
2018-01-24T09:02:13.360Z,145
2018-01-24T09:03:13.076Z,135
2018-01-24T09:04:12.871Z,130
2018-01-24T09:05:12.775Z,130
2018-01-24T09:06:13.031Z,140
2018-01-24T09:07:13.291Z,135
2018-01-24T09:08:12.733Z,135
2018-01-24T09:09:12.717Z,125
2018-01-24T09:10:13.262Z,125
2018-01-24T09:11:13.509Z,115
2018-01-24T09:12:12.948Z,105
2018-01-24T09:13:12.667Z,105
2018-01-24T09:14:12.655Z,95
2018-01-24T09:15:12.652Z,105
2018-01-24T09:16:12.890Z,130
2018-01-24T09:17:12.611Z,140
2018-01-24T09:18:12.866Z,135
2018-01-24T09:19:13.124Z,135
2018-01-24T09:20:13.388Z,130
2018-01-24T09:21:13.118Z,125
2018-01-24T09:22:12.821Z,135
2018-01-24T09:23:13.373Z,145
2018-01-24T09:24:13.055Z,150
2018-01-24T09:25:12.772Z,150
2018-01-24T09:26:12.766Z,155
2018-01-24T09:27:12.744Z,155
2018-01-24T09:28:13.008Z,170
2018-01-24T09:29:12.753Z,175
2018-01-24T09:30:12.434Z,190
2018-01-24T09:31:12.419Z,185
2018-01-24T09:32:12.963Z,175
2018-01-24T09:33:13.217Z,185
2018-01-24T09:34:12.657Z,185
2018-01-24T09:35:12.644Z,195
2018-01-24T09:36:12.910Z,195
2018-01-24T09:37:13.159Z,195
2018-01-24T09:38:12.598Z,200
2018-01-24T09:39:12.313Z,185
2018-01-24T09:40:12.862Z,185
2018-01-24T09:41:13.137Z,210
2018-01-24T09:42:13.091Z,220
2018-01-24T09:43:12.262Z,220
2018-01-24T09:44:12.280Z,235
2018-01-24T09:45:12.779Z,245
2018-01-24T09:46:12.511Z,245
2018-01-24T09:47:12.510Z,255
2018-01-24T09:48:12.737Z,260
2018-01-24T09:49:12.479Z,265
2018-01-24T09:50:12.477Z,255
2018-01-24T09:51:12.432Z,250
2018-01-24T09:52:12.427Z,245
2018-01-24T09:53:12.403Z,250
2018-01-24T09:54:12.126Z,260
2018-01-24T09:55:12.936Z,260
2018-01-24T09:56:12.929Z,270
2018-01-24T09:57:13.198Z,280
2018-01-24T09:58:12.892Z,280
2018-01-24T09:59:12.336Z,275
2018-01-24T10:00:12.608Z,270
2018-01-24T10:01:12.307Z,265
2018-01-24T10:02:12.355Z,270
2018-01-24T10:03:12.285Z,270
2018-01-24T10:04:12.289Z,275
2018-01-24T10:05:12.259Z,285
2018-01-24T10:06:12.790Z,280
2018-01-24T10:07:12.507Z,265
2018-01-24T10:08:12.507Z,265
2018-01-24T10:09:12.507Z,265
2018-01-24T10:10:11.929Z,250
2018-01-24T10:11:11.927Z,250
2018-01-24T10:12:12.474Z,250
2018-01-24T10:13:12.436Z,250
2018-01-24T10:14:12.175Z,250
2018-01-24T10:15:12.416Z,265
2018-01-24T10:16:12.130Z,255
2018-01-24T10:17:12.120Z,225
2018-01-24T10:18:12.389Z,200
2018-01-24T10:19:12.369Z,195
2018-01-24T10:20:12.087Z,180
2018-01-24T10:21:12.346Z,185
2018-01-24T10:22:12.340Z,185
2018-01-24T10:23:11.774Z,175
2018-01-24T10:24:11.766Z,165
2018-01-24T10:25:12.382Z,155
2018-01-24T10:26:12.280Z,170
2018-01-24T10:27:12.002Z,195
2018-01-24T10:28:11.992Z,210
2018-01-24T10:29:12.275Z,230
2018-01-24T10:30:11.967Z,240
2018-01-24T10:31:11.973Z,245
2018-01-24T10:32:11.952Z,235
2018-01-24T10:33:12.200Z,215
2018-01-24T10:34:12.217Z,235
2018-01-24T10:35:11.640Z,265
2018-01-24T10:36:12.208Z,265
2018-01-24T10:37:12.158Z,295
2018-01-24T10:38:11.886Z,335
2018-01-24T10:39:12.159Z,300
2018-01-24T10:40:12.117Z,265
2018-01-24T10:41:12.137Z,265
2018-01-24T10:42:11.864Z,255
2018-01-24T10:43:11.568Z,220
2018-01-24T10:44:11.554Z,195
2018-01-24T10:45:11.802Z,180
2018-01-24T10:46:11.804Z,180
2018-01-24T10:47:11.496Z,180
2018-01-24T10:48:12.056Z,195
2018-01-24T10:49:11.770Z,215
2018-01-24T10:50:12.296Z,225
2018-01-24T10:51:12.274Z,245
2018-01-24T10:52:11.712Z,230
2018-01-24T10:53:11.719Z,255
2018-01-24T10:54:11.698Z,255
2018-01-24T10:55:12.223Z,245
2018-01-24T10:56:11.418Z,205
2018-01-24T10:57:11.391Z,175
2018-01-24T10:58:11.653Z,175
2018-01-24T10:59:11.918Z,195
2018-01-24T11:00:12.185Z,195
2018-01-24T11:01:11.904Z,185
2018-01-24T11:02:11.346Z,190
2018-01-24T11:03:11.863Z,200
2018-01-24T11:04:11.607Z,205
2018-01-24T11:05:12.114Z,195
2018-01-24T11:06:11.596Z,200
2018-01-24T11:07:12.099Z,205
2018-01-24T11:08:11.541Z,240
2018-01-24T11:09:12.098Z,280
2018-01-24T11:10:11.533Z,250
2018-01-24T11:11:11.506Z,235
2018-01-24T11:12:11.494Z,255
2018-01-24T11:13:11.486Z,245
2018-01-24T11:14:11.805Z,250
2018-01-24T11:15:11.761Z,230
2018-01-24T11:16:12.283Z,205
2018-01-24T11:17:11.758Z,190
2018-01-24T11:18:11.426Z,170
2018-01-24T11:19:11.432Z,160
2018-01-24T11:20:11.433Z,195
2018-01-24T11:21:11.944Z,225
2018-01-24T11:22:11.661Z,255
2018-01-24T11:23:11.111Z,245
2018-01-24T11:24:11.366Z,225
2018-01-24T11:25:11.648Z,215
2018-01-24T11:26:11.889Z,205
2018-01-24T11:27:11.344Z,215
2018-01-24T11:28:11.360Z,200
2018-01-24T11:29:11.035Z,200
2018-01-24T11:30:12.106Z,195
2018-01-24T11:31:11.836Z,200
2018-01-24T11:32:11.822Z,200
2018-01-24T11:33:11.268Z,220
2018-01-24T11:34:11.281Z,215
2018-01-24T11:35:11.529Z,235
2018-01-24T11:36:11.228Z,245
2018-01-24T11:37:11.214Z,225
2018-01-24T11:38:11.247Z,230
2018-01-24T11:39:11.200Z,195
2018-01-24T11:40:10.914Z,195
2018-01-24T11:41:11.178Z,240
2018-01-24T11:42:11.161Z,245
2018-01-24T11:43:11.421Z,220
2018-01-24T11:44:11.174Z,230
2018-01-24T11:45:11.130Z,225
2018-01-24T11:46:11.115Z,195
2018-01-24T11:47:11.408Z,205
2018-01-24T11:48:11.102Z,235
2018-01-24T11:49:11.091Z,245
2018-01-24T11:50:12.002Z,240
2018-01-24T11:51:12.019Z,190
2018-01-24T11:52:11.678Z,160
2018-01-24T11:53:11.240Z,150
2018-01-24T11:54:11.035Z,165
2018-01-24T11:55:12.093Z,140
2018-01-24T11:56:11.594Z,145
2018-01-24T11:57:11.626Z,150
2018-01-24T11:58:11.366Z,145
2018-01-24T11:59:11.006Z,165
2018-01-24T12:00:11.520Z,195
2018-01-24T12:01:11.151Z,200
2018-01-24T12:02:10.943Z,170
2018-01-24T12:03:10.943Z,195
2018-01-24T12:04:11.208Z,190
2018-01-24T12:05:10.640Z,215
2018-01-24T12:06:11.460Z,215
2018-01-24T12:07:10.946Z,195
2018-01-24T12:08:10.878Z,215
2018-01-24T12:09:10.873Z,185
2018-01-24T12:10:10.882Z,200
2018-01-24T12:11:11.121Z,205
2018-01-24T12:12:11.101Z,210
2018-01-24T12:13:11.094Z,240
2018-01-24T12:14:10.542Z,205
2018-01-24T12:15:10.543Z,205
2018-01-24T12:16:11.085Z,215
2018-01-24T12:17:10.534Z,210
2018-01-24T12:18:10.496Z,195
2018-01-24T12:19:10.769Z,225
2018-01-24T12:20:11.024Z,180
2018-01-24T12:21:10.465Z,180
2018-01-24T12:22:11.020Z,170
2018-01-24T12:23:11.251Z,170
2018-01-24T12:24:10.700Z,155
2018-01-24T12:25:10.429Z,170
2018-01-24T12:26:10.675Z,160
2018-01-24T12:27:10.938Z,180
2018-01-24T12:28:10.687Z,165
2018-01-24T12:29:10.669Z,170
2018-01-24T12:30:10.391Z,180
2018-01-24T12:31:10.632Z,170
2018-01-24T12:32:10.610Z,160
2018-01-24T12:33:10.611Z,155
2018-01-24T12:34:10.881Z,175
2018-01-24T12:35:10.877Z,160
2018-01-24T12:36:10.295Z,180
2018-01-24T12:37:10.553Z,170
2018-01-24T12:38:10.542Z,190
2018-01-24T12:39:10.532Z,195
2018-01-24T12:40:10.537Z,185
2018-01-24T12:41:10.529Z,180
2018-01-24T12:42:10.505Z,185
2018-01-24T12:43:10.485Z,170
2018-01-24T12:44:10.472Z,205
2018-01-24T12:45:10.747Z,160
2018-01-24T12:46:10.176Z,185
2018-01-24T12:47:10.181Z,185
2018-01-24T12:48:10.425Z,200
2018-01-24T12:49:10.718Z,185
2018-01-24T12:50:10.403Z,225
2018-01-24T12:51:10.393Z,210
2018-01-24T12:52:10.423Z,175
2018-01-24T12:53:10.372Z,185
2018-01-24T12:54:10.355Z,205
2018-01-24T12:55:10.621Z,190
2018-01-24T12:56:10.086Z,205
2018-01-24T12:57:10.651Z,190
2018-01-24T12:58:10.308Z,205
2018-01-24T12:59:10.613Z,185
2018-01-24T13:00:10.292Z,165
2018-01-24T13:01:10.316Z,175
2018-01-24T13:02:10.559Z,165
2018-01-24T13:03:09.979Z,155
2018-01-24T13:04:10.787Z,160
2018-01-24T13:05:10.519Z,175
2018-01-24T13:06:11.032Z,195
2018-01-24T13:07:09.945Z,205
2018-01-24T13:08:10.525Z,185
2018-01-24T13:09:10.203Z,170
2018-01-24T13:10:10.528Z,190
2018-01-24T13:11:10.434Z,180
2018-01-24T13:12:10.422Z,200
2018-01-24T13:13:10.145Z,205
2018-01-24T13:14:10.139Z,185
2018-01-24T13:15:10.656Z,185
2018-01-24T13:16:10.101Z,160
2018-01-24T13:17:10.111Z,150
2018-01-24T13:18:10.377Z,155
2018-01-24T13:19:10.377Z,160
2018-01-24T13:20:10.065Z,150
2018-01-24T13:21:10.048Z,160
2018-01-24T13:22:10.327Z,160
2018-01-24T13:23:10.042Z,150
2018-01-24T13:24:09.740Z,150
2018-01-24T13:25:10.007Z,150
2018-01-24T13:26:10.270Z,160
2018-01-24T13:27:09.707Z,160
2018-01-24T13:28:09.970Z,170
2018-01-24T13:29:10.232Z,165
2018-01-24T13:30:10.234Z,185
2018-01-24T13:31:10.482Z,180
2018-01-24T13:32:10.194Z,185
2018-01-24T13:33:10.209Z,190
2018-01-24T13:34:09.903Z,200
2018-01-24T13:35:10.163Z,215
2018-01-24T13:36:10.414Z,200
2018-01-24T13:37:09.896Z,205
2018-01-24T13:38:09.610Z,205
2018-01-24T13:39:10.399Z,210
2018-01-24T13:40:09.850Z,215
2018-01-24T13:41:09.828Z,205
2018-01-24T13:42:10.093Z,200
2018-01-24T13:43:10.077Z,190
2018-01-24T13:44:10.064Z,180
2018-01-24T13:45:10.072Z,170
2018-01-24T13:46:09.517Z,160
2018-01-24T13:47:09.482Z,160
2018-01-24T13:48:09.503Z,150
2018-01-24T13:49:09.486Z,155
2018-01-24T13:50:10.034Z,140
2018-01-24T13:51:09.991Z,135
2018-01-24T13:52:09.442Z,125
2018-01-24T13:53:09.684Z,120
2018-01-24T13:54:09.974Z,105
2018-01-24T13:55:09.935Z,100
2018-01-24T13:56:10.335Z,100
2018-01-24T13:57:09.642Z,105
2018-01-24T13:58:09.383Z,105
2018-01-24T13:59:09.645Z,100
2018-01-24T14:00:09.909Z,95
2018-01-24T14:01:09.870Z,95
2018-01-24T14:02:09.877Z,95
2018-01-24T14:03:10.140Z,95
2018-01-24T14:04:09.878Z,95
2018-01-24T14:05:09.563Z,90
2018-01-24T14:06:09.573Z,95
2018-01-24T14:07:09.775Z,90
2018-01-24T14:08:09.791Z,90
2018-01-24T14:09:10.431Z,90
2018-01-24T14:10:09.233Z,90
2018-01-24T14:11:09.227Z,90
2018-01-24T14:12:09.474Z,85
2018-01-24T14:13:09.483Z,90
2018-01-24T14:14:09.746Z,90
2018-01-24T14:15:09.452Z,90
2018-01-24T14:16:09.976Z,85
2018-01-24T14:17:09.811Z,85
2018-01-24T14:18:09.438Z,80
2018-01-24T14:19:09.136Z,85